Terminal Aerodrome Forecast
Issued by NWS

Home | Current Version | Previous Version | Text Only | Print | Product List | Glossary On
Versions: 1 2 3 4 5 6 7 8 9 10 11 12 13 14 15 16 17 18
000
FTUS45 KPSR 280525
TAFSDL
TAF
KSDL 280525Z 2806/2906 VRB06KT 5SM HZ SCT010
     FM280630 09006KT P6SM BKN100 BKN180=

USA.gov is the U.S. government's official web portal to all federal, state and local government web resources and services.